sensor_id;sensor_type;location;lat;lon;timestamp;temperature;humidity
4097;DHT22;2062;50.694;7.246;2023-07-22T00:00:06;14.90;50.40
4097;DHT22;2062;50.694;7.246;2023-07-22T00:02:38;14.80;50.40
4097;DHT22;2062;50.694;7.246;2023-07-22T00:05:05;14.80;50.30
4097;DHT22;2062;50.694;7.246;2023-07-22T00:07:32;14.80;50.50
4097;DHT22;2062;50.694;7.246;2023-07-22T00:10:00;14.70;50.50
4097;DHT22;2062;50.694;7.246;2023-07-22T00:12:27;14.70;50.70
4097;DHT22;2062;50.694;7.246;2023-07-22T00:14:55;14.70;50.70
4097;DHT22;2062;50.694;7.246;2023-07-22T00:17:22;14.70;50.80
4097;DHT22;2062;50.694;7.246;2023-07-22T00:19:50;14.60;50.70
4097;DHT22;2062;50.694;7.246;2023-07-22T00:22:17;14.60;50.70
4097;DHT22;2062;50.694;7.246;2023-07-22T00:24:43;14.60;51.60
4097;DHT22;2062;50.694;7.246;2023-07-22T00:27:10;14.50;50.90
4097;DHT22;2062;50.694;7.246;2023-07-22T00:29:37;14.60;51.00
4097;DHT22;2062;50.694;7.246;2023-07-22T00:32:08;14.50;50.90
4097;DHT22;2062;50.694;7.246;2023-07-22T00:34:35;14.50;50.90
4097;DHT22;2062;50.694;7.246;2023-07-22T00:37:02;14.50;51.00
4097;DHT22;2062;50.694;7.246;2023-07-22T00:39:29;14.40;51.00
4097;DHT22;2062;50.694;7.246;2023-07-22T00:41:55;14.50;51.00
4097;DHT22;2062;50.694;7.246;2023-07-22T00:44:22;14.40;51.00
4097;DHT22;2062;50.694;7.246;2023-07-22T00:46:50;14.40;51.00
4097;DHT22;2062;50.694;7.246;2023-07-22T00:49:21;14.40;50.90
4097;DHT22;2062;50.694;7.246;2023-07-22T00:51:49;14.40;51.00
4097;DHT22;2062;50.694;7.246;2023-07-22T00:54:16;14.40;51.10
4097;DHT22;2062;50.694;7.246;2023-07-22T00:56:43;14.50;51.00
4097;DHT22;2062;50.694;7.246;2023-07-22T00:59:10;14.40;51.00
4097;DHT22;2062;50.694;7.246;2023-07-22T01:01:37;14.40;51.10
4097;DHT22;2062;50.694;7.246;2023-07-22T01:04:04;14.30;51.10
4097;DHT22;2062;50.694;7.246;2023-07-22T01:06:34;14.30;51.10
4097;DHT22;2062;50.694;7.246;2023-07-22T01:09:01;14.30;51.10
4097;DHT22;2062;50.694;7.246;2023-07-22T01:11:28;14.30;50.90
4097;DHT22;2062;50.694;7.246;2023-07-22T01:13:55;14.40;51.00
4097;DHT22;2062;50.694;7.246;2023-07-22T01:16:25;14.30;50.90
4097;DHT22;2062;50.694;7.246;2023-07-22T01:18:53;14.30;51.00
4097;DHT22;2062;50.694;7.246;2023-07-22T01:21:21;14.30;51.00
4097;DHT22;2062;50.694;7.246;2023-07-22T01:23:50;14.30;51.10
4097;DHT22;2062;50.694;7.246;2023-07-22T01:26:18;14.30;51.20
4097;DHT22;2062;50.694;7.246;2023-07-22T01:28:45;14.20;51.80
4097;DHT22;2062;50.694;7.246;2023-07-22T01:31:12;14.20;51.00
4097;DHT22;2062;50.694;7.246;2023-07-22T01:33:39;14.20;51.10
4097;DHT22;2062;50.694;7.246;2023-07-22T01:36:05;14.20;51.10
4097;DHT22;2062;50.694;7.246;2023-07-22T01:38:33;14.20;51.10
4097;DHT22;2062;50.694;7.246;2023-07-22T01:41:01;14.20;51.20
4097;DHT22;2062;50.694;7.246;2023-07-22T01:43:28;14.20;51.20
4097;DHT22;2062;50.694;7.246;2023-07-22T01:45:55;14.10;51.10
4097;DHT22;2062;50.694;7.246;2023-07-22T01:48:22;14.10;51.60
4097;DHT22;2062;50.694;7.246;2023-07-22T01:50:49;14.10;50.90
4097;DHT22;2062;50.694;7.246;2023-07-22T01:53:16;14.10;50.90
4097;DHT22;2062;50.694;7.246;2023-07-22T01:55:43;14.10;50.90
4097;DHT22;2062;50.694;7.246;2023-07-22T01:58:12;14.10;50.80
4097;DHT22;2062;50.694;7.246;2023-07-22T02:00:38;14.10;50.80
4097;DHT22;2062;50.694;7.246;2023-07-22T02:03:05;14.00;50.70
4097;DHT22;2062;50.694;7.246;2023-07-22T02:05:32;14.00;50.70
4097;DHT22;2062;50.694;7.246;2023-07-22T02:07:59;14.00;50.70
4097;DHT22;2062;50.694;7.246;2023-07-22T02:10:26;14.00;50.70
4097;DHT22;2062;50.694;7.246;2023-07-22T02:12:52;14.00;50.80
4097;DHT22;2062;50.694;7.246;2023-07-22T02:15:20;14.00;50.90
4097;DHT22;2062;50.694;7.246;2023-07-22T02:17:49;14.00;50.70
4097;DHT22;2062;50.694;7.246;2023-07-22T02:20:16;14.00;50.70
4097;DHT22;2062;50.694;7.246;2023-07-22T02:22:43;14.00;50.80
4097;DHT22;2062;50.694;7.246;2023-07-22T02:25:10;14.00;50.90
4097;DHT22;2062;50.694;7.246;2023-07-22T02:27:37;14.00;50.90
4097;DHT22;2062;50.694;7.246;2023-07-22T02:30:06;14.00;50.80
4097;DHT22;2062;50.694;7.246;2023-07-22T02:32:37;14.00;50.90
4097;DHT22;2062;50.694;7.246;2023-07-22T02:35:05;14.00;50.90
4097;DHT22;2062;50.694;7.246;2023-07-22T02:37:32;14.00;50.90
4097;DHT22;2062;50.694;7.246;2023-07-22T02:39:59;13.90;50.80
4097;DHT22;2062;50.694;7.246;2023-07-22T02:42:26;13.90;50.90
4097;DHT22;2062;50.694;7.246;2023-07-22T02:44:53;14.00;50.80
4097;DHT22;2062;50.694;7.246;2023-07-22T02:47:20;13.90;50.90
4097;DHT22;2062;50.694;7.246;2023-07-22T02:49:48;13.90;51.00
4097;DHT22;2062;50.694;7.246;2023-07-22T02:52:15;14.00;51.00
4097;DHT22;2062;50.694;7.246;2023-07-22T02:54:42;13.90;50.90
4097;DHT22;2062;50.694;7.246;2023-07-22T02:57:09;14.00;51.00
4097;DHT22;2062;50.694;7.246;2023-07-22T02:59:36;14.00;50.80
4097;DHT22;2062;50.694;7.246;2023-07-22T03:02:03;13.90;50.80
4097;DHT22;2062;50.694;7.246;2023-07-22T03:04:29;13.90;50.80
4097;DHT22;2062;50.694;7.246;2023-07-22T03:06:58;14.00;50.90
4097;DHT22;2062;50.694;7.246;2023-07-22T03:09:25;13.90;50.80
4097;DHT22;2062;50.694;7.246;2023-07-22T03:11:52;13.90;50.90
4097;DHT22;2062;50.694;7.246;2023-07-22T03:14:19;13.90;50.80
4097;DHT22;2062;50.694;7.246;2023-07-22T03:16:47;13.90;50.70
4097;DHT22;2062;50.694;7.246;2023-07-22T03:19:14;13.90;50.80
4097;DHT22;2062;50.694;7.246;2023-07-22T03:21:41;13.90;50.70
4097;DHT22;2062;50.694;7.246;2023-07-22T03:24:09;13.90;50.80
4097;DHT22;2062;50.694;7.246;2023-07-22T03:26:35;13.90;50.90
4097;DHT22;2062;50.694;7.246;2023-07-22T03:29:02;13.90;50.80
4097;DHT22;2062;50.694;7.246;2023-07-22T03:31:30;13.90;50.70
4097;DHT22;2062;50.694;7.246;2023-07-22T03:33:57;13.90;50.80
4097;DHT22;2062;50.694;7.246;2023-07-22T03:36:24;13.90;50.70
4097;DHT22;2062;50.694;7.246;2023-07-22T03:38:51;13.90;51.40
4097;DHT22;2062;50.694;7.246;2023-07-22T03:41:19;13.90;50.80
4097;DHT22;2062;50.694;7.246;2023-07-22T03:43:46;13.90;50.70
4097;DHT22;2062;50.694;7.246;2023-07-22T03:46:13;13.90;50.80
4097;DHT22;2062;50.694;7.246;2023-07-22T03:48:40;13.90;51.40
4097;DHT22;2062;50.694;7.246;2023-07-22T03:51:07;13.90;50.70
4097;DHT22;2062;50.694;7.246;2023-07-22T03:53:33;13.90;50.80
4097;DHT22;2062;50.694;7.246;2023-07-22T03:56:00;13.90;50.70
4097;DHT22;2062;50.694;7.246;2023-07-22T03:58:28;13.90;50.80
4097;DHT22;2062;50.694;7.246;2023-07-22T04:00:55;13.90;50.70
4097;DHT22;2062;50.694;7.246;2023-07-22T04:03:22;13.90;50.70
4097;DHT22;2062;50.694;7.246;2023-07-22T04:05:54;13.90;50.80
4097;DHT22;2062;50.694;7.246;2023-07-22T04:08:20;14.10;50.90
4097;DHT22;2062;50.694;7.246;2023-07-22T04:10:51;14.00;50.70
4097;DHT22;2062;50.694;7.246;2023-07-22T04:13:18;14.00;50.60
4097;DHT22;2062;50.694;7.246;2023-07-22T04:15:46;14.00;50.60
4097;DHT22;2062;50.694;7.246;2023-07-22T04:18:15;14.10;50.70
4097;DHT22;2062;50.694;7.246;2023-07-22T04:20:42;14.10;50.60
4097;DHT22;2062;50.694;7.246;2023-07-22T04:23:08;14.00;50.50
4097;DHT22;2062;50.694;7.246;2023-07-22T04:25:39;14.00;50.50
4097;DHT22;2062;50.694;7.246;2023-07-22T04:28:05;14.00;50.40
4097;DHT22;2062;50.694;7.246;2023-07-22T04:30:32;14.10;50.50
4097;DHT22;2062;50.694;7.246;2023-07-22T04:33:01;14.00;50.30
4097;DHT22;2062;50.694;7.246;2023-07-22T04:35:30;14.10;50.40
4097;DHT22;2062;50.694;7.246;2023-07-22T04:37:57;14.10;51.00
4097;DHT22;2062;50.694;7.246;2023-07-22T04:40:24;14.10;50.30
4097;DHT22;2062;50.694;7.246;2023-07-22T04:42:51;14.10;50.30
4097;DHT22;2062;50.694;7.246;2023-07-22T04:45:18;14.20;50.10
4097;DHT22;2062;50.694;7.246;2023-07-22T04:47:45;14.20;50.20
4097;DHT22;2062;50.694;7.246;2023-07-22T04:50:15;14.20;50.10
4097;DHT22;2062;50.694;7.246;2023-07-22T04:52:42;14.20;50.10
4097;DHT22;2062;50.694;7.246;2023-07-22T04:55:10;14.30;50.10
4097;DHT22;2062;50.694;7.246;2023-07-22T04:57:38;14.30;50.00
4097;DHT22;2062;50.694;7.246;2023-07-22T05:00:07;14.30;50.00
4097;DHT22;2062;50.694;7.246;2023-07-22T05:02:35;14.40;50.00
4097;DHT22;2062;50.694;7.246;2023-07-22T05:05:02;14.40;50.10
4097;DHT22;2062;50.694;7.246;2023-07-22T05:07:31;14.40;50.00
4097;DHT22;2062;50.694;7.246;2023-07-22T05:09:57;14.50;50.10
4097;DHT22;2062;50.694;7.246;2023-07-22T05:12:24;14.50;50.00
4097;DHT22;2062;50.694;7.246;2023-07-22T05:14:51;14.60;50.00
4097;DHT22;2062;50.694;7.246;2023-07-22T05:17:18;14.60;50.00
4097;DHT22;2062;50.694;7.246;2023-07-22T05:19:45;14.60;50.60
4097;DHT22;2062;50.694;7.246;2023-07-22T05:22:14;14.60;49.90
4097;DHT22;2062;50.694;7.246;2023-07-22T05:24:42;14.70;49.90
4097;DHT22;2062;50.694;7.246;2023-07-22T05:27:09;14.70;49.80
4097;DHT22;2062;50.694;7.246;2023-07-22T05:29:35;14.70;49.80
4097;DHT22;2062;50.694;7.246;2023-07-22T05:32:02;14.80;49.80
4097;DHT22;2062;50.694;7.246;2023-07-22T05:34:29;14.80;49.80
4097;DHT22;2062;50.694;7.246;2023-07-22T05:36:56;14.90;49.80
4097;DHT22;2062;50.694;7.246;2023-07-22T05:39:23;14.90;49.70
4097;DHT22;2062;50.694;7.246;2023-07-22T05:41:52;15.10;49.70
4097;DHT22;2062;50.694;7.246;2023-07-22T05:44:18;15.10;49.60
4097;DHT22;2062;50.694;7.246;2023-07-22T05:46:48;15.10;49.70
4097;DHT22;2062;50.694;7.246;2023-07-22T05:49:15;15.30;49.70
4097;DHT22;2062;50.694;7.246;2023-07-22T05:51:42;15.30;49.70
4097;DHT22;2062;50.694;7.246;2023-07-22T05:54:08;15.40;49.70
4097;DHT22;2062;50.694;7.246;2023-07-22T05:56:35;15.50;49.60
4097;DHT22;2062;50.694;7.246;2023-07-22T05:59:03;15.60;49.50
4097;DHT22;2062;50.694;7.246;2023-07-22T06:01:30;15.70;49.60
4097;DHT22;2062;50.694;7.246;2023-07-22T06:03:57;15.70;49.50
4097;DHT22;2062;50.694;7.246;2023-07-22T06:06:24;15.80;49.50
4097;DHT22;2062;50.694;7.246;2023-07-22T06:08:51;15.90;49.50
4097;DHT22;2062;50.694;7.246;2023-07-22T06:11:18;16.00;49.40
4097;DHT22;2062;50.694;7.246;2023-07-22T06:13:44;16.20;49.40
4097;DHT22;2062;50.694;7.246;2023-07-22T06:16:13;16.40;49.60
4097;DHT22;2062;50.694;7.246;2023-07-22T06:18:39;16.60;49.60
4097;DHT22;2062;50.694;7.246;2023-07-22T06:21:06;16.70;49.60
4097;DHT22;2062;50.694;7.246;2023-07-22T06:23:33;17.00;49.00
4097;DHT22;2062;50.694;7.246;2023-07-22T06:26:00;17.20;48.80
4097;DHT22;2062;50.694;7.246;2023-07-22T06:28:27;17.40;48.20
4097;DHT22;2062;50.694;7.246;2023-07-22T06:30:54;17.70;48.10
4097;DHT22;2062;50.694;7.246;2023-07-22T06:33:22;17.90;47.60
4097;DHT22;2062;50.694;7.246;2023-07-22T06:35:49;18.20;47.10
4097;DHT22;2062;50.694;7.246;2023-07-22T06:38:15;18.40;47.90
4097;DHT22;2062;50.694;7.246;2023-07-22T06:40:42;18.60;46.40
4097;DHT22;2062;50.694;7.246;2023-07-22T06:43:09;18.90;46.20
4097;DHT22;2062;50.694;7.246;2023-07-22T06:45:36;19.10;45.50
4097;DHT22;2062;50.694;7.246;2023-07-22T06:48:03;19.30;45.60
4097;DHT22;2062;50.694;7.246;2023-07-22T06:50:31;19.60;45.30
4097;DHT22;2062;50.694;7.246;2023-07-22T06:52:58;19.70;45.60
4097;DHT22;2062;50.694;7.246;2023-07-22T06:55:25;19.90;44.20
4097;DHT22;2062;50.694;7.246;2023-07-22T06:57:51;20.10;44.60
4097;DHT22;2062;50.694;7.246;2023-07-22T07:00:18;20.40;43.10
4097;DHT22;2062;50.694;7.246;2023-07-22T07:02:45;20.50;43.40
4097;DHT22;2062;50.694;7.246;2023-07-22T07:05:12;20.70;42.20
4097;DHT22;2062;50.694;7.246;2023-07-22T07:07:40;20.70;41.50
4097;DHT22;2062;50.694;7.246;2023-07-22T07:10:07;20.90;40.70
4097;DHT22;2062;50.694;7.246;2023-07-22T07:12:34;21.00;41.20
4097;DHT22;2062;50.694;7.246;2023-07-22T07:15:01;21.10;40.50
4097;DHT22;2062;50.694;7.246;2023-07-22T07:17:28;21.30;39.80
4097;DHT22;2062;50.694;7.246;2023-07-22T07:19:55;21.40;39.90
4097;DHT22;2062;50.694;7.246;2023-07-22T07:22:21;21.60;42.00
4097;DHT22;2062;50.694;7.246;2023-07-22T07:24:49;21.70;39.90
4097;DHT22;2062;50.694;7.246;2023-07-22T07:27:16;21.90;39.00
4097;DHT22;2062;50.694;7.246;2023-07-22T07:29:43;22.10;38.20
4097;DHT22;2062;50.694;7.246;2023-07-22T07:32:10;22.20;38.20
4097;DHT22;2062;50.694;7.246;2023-07-22T07:34:36;22.40;39.20
4097;DHT22;2062;50.694;7.246;2023-07-22T07:37:04;22.50;38.50
4097;DHT22;2062;50.694;7.246;2023-07-22T07:39:31;22.70;37.80
4097;DHT22;2062;50.694;7.246;2023-07-22T07:41:59;22.80;36.60
4097;DHT22;2062;50.694;7.246;2023-07-22T07:44:26;22.90;36.70
4097;DHT22;2062;50.694;7.246;2023-07-22T07:46:52;23.00;36.60
4097;DHT22;2062;50.694;7.246;2023-07-22T07:49:19;23.20;36.50
4097;DHT22;2062;50.694;7.246;2023-07-22T07:51:46;23.30;36.20
4097;DHT22;2062;50.694;7.246;2023-07-22T07:54:13;23.50;36.50
4097;DHT22;2062;50.694;7.246;2023-07-22T07:56:40;23.50;35.90
4097;DHT22;2062;50.694;7.246;2023-07-22T07:59:08;23.60;35.60
4097;DHT22;2062;50.694;7.246;2023-07-22T08:01:35;23.80;35.40
4097;DHT22;2062;50.694;7.246;2023-07-22T08:04:07;23.90;35.60
4097;DHT22;2062;50.694;7.246;2023-07-22T08:06:34;24.00;35.30
4097;DHT22;2062;50.694;7.246;2023-07-22T08:09:02;24.00;34.80
4097;DHT22;2062;50.694;7.246;2023-07-22T08:11:30;24.00;35.70
4097;DHT22;2062;50.694;7.246;2023-07-22T08:13:57;24.10;35.00
4097;DHT22;2062;50.694;7.246;2023-07-22T08:16:25;24.10;35.10
4097;DHT22;2062;50.694;7.246;2023-07-22T08:18:53;24.10;35.00
4097;DHT22;2062;50.694;7.246;2023-07-22T08:21:20;24.10;35.10
4097;DHT22;2062;50.694;7.246;2023-07-22T08:23:47;24.20;35.40
4097;DHT22;2062;50.694;7.246;2023-07-22T08:26:14;24.30;35.90
4097;DHT22;2062;50.694;7.246;2023-07-22T08:28:43;24.40;36.50
4097;DHT22;2062;50.694;7.246;2023-07-22T08:31:10;24.50;36.70
4097;DHT22;2062;50.694;7.246;2023-07-22T08:33:38;24.60;36.80
4097;DHT22;2062;50.694;7.246;2023-07-22T08:36:05;24.70;36.40
4097;DHT22;2062;50.694;7.246;2023-07-22T08:38:31;24.80;36.00
4097;DHT22;2062;50.694;7.246;2023-07-22T08:40:59;24.90;35.60
4097;DHT22;2062;50.694;7.246;2023-07-22T08:43:27;25.00;36.00
4097;DHT22;2062;50.694;7.246;2023-07-22T08:45:57;25.10;35.90
4097;DHT22;2062;50.694;7.246;2023-07-22T08:48:27;25.20;35.40
4097;DHT22;2062;50.694;7.246;2023-07-22T08:51:02;25.20;35.90
4097;DHT22;2062;50.694;7.246;2023-07-22T08:53:29;25.30;35.40
4097;DHT22;2062;50.694;7.246;2023-07-22T08:55:58;25.40;35.70
4097;DHT22;2062;50.694;7.246;2023-07-22T08:58:25;25.50;35.30
4097;DHT22;2062;50.694;7.246;2023-07-22T09:00:53;25.50;34.50
4097;DHT22;2062;50.694;7.246;2023-07-22T09:03:20;25.50;34.60
4097;DHT22;2062;50.694;7.246;2023-07-22T09:05:47;25.60;34.40
4097;DHT22;2062;50.694;7.246;2023-07-22T09:08:16;25.60;33.80
4097;DHT22;2062;50.694;7.246;2023-07-22T09:10:43;25.70;33.70
4097;DHT22;2062;50.694;7.246;2023-07-22T09:13:12;25.80;34.30
4097;DHT22;2062;50.694;7.246;2023-07-22T09:15:40;25.90;34.50
4097;DHT22;2062;50.694;7.246;2023-07-22T09:18:07;25.90;33.80
4097;DHT22;2062;50.694;7.246;2023-07-22T09:20:34;26.00;34.30
4097;DHT22;2062;50.694;7.246;2023-07-22T09:23:01;26.00;33.70
4097;DHT22;2062;50.694;7.246;2023-07-22T09:25:29;26.00;33.30
4097;DHT22;2062;50.694;7.246;2023-07-22T09:27:59;25.90;32.20
4097;DHT22;2062;50.694;7.246;2023-07-22T09:30:27;25.90;32.40
4097;DHT22;2062;50.694;7.246;2023-07-22T09:32:55;25.80;31.60
4097;DHT22;2062;50.694;7.246;2023-07-22T09:35:24;25.70;31.70
4097;DHT22;2062;50.694;7.246;2023-07-22T09:37:52;25.60;32.20
4097;DHT22;2062;50.694;7.246;2023-07-22T09:40:20;25.50;31.50
4097;DHT22;2062;50.694;7.246;2023-07-22T09:42:50;25.40;31.20
4097;DHT22;2062;50.694;7.246;2023-07-22T09:45:18;25.40;33.10
4097;DHT22;2062;50.694;7.246;2023-07-22T09:47:46;25.30;31.00
4097;DHT22;2062;50.694;7.246;2023-07-22T09:50:14;25.20;30.30
4097;DHT22;2062;50.694;7.246;2023-07-22T09:52:45;25.10;29.80
4097;DHT22;2062;50.694;7.246;2023-07-22T09:55:12;25.00;30.60
4097;DHT22;2062;50.694;7.246;2023-07-22T09:57:43;25.00;30.70
4097;DHT22;2062;50.694;7.246;2023-07-22T10:00:13;24.80;30.60
4097;DHT22;2062;50.694;7.246;2023-07-22T10:02:41;24.80;30.80
4097;DHT22;2062;50.694;7.246;2023-07-22T10:05:12;24.70;30.00
4097;DHT22;2062;50.694;7.246;2023-07-22T10:07:45;24.70;29.90
4097;DHT22;2062;50.694;7.246;2023-07-22T10:10:15;24.70;30.40
4097;DHT22;2062;50.694;7.246;2023-07-22T10:12:43;24.60;31.00
4097;DHT22;2062;50.694;7.246;2023-07-22T10:15:12;24.60;30.70
4097;DHT22;2062;50.694;7.246;2023-07-22T10:17:40;24.60;30.70
4097;DHT22;2062;50.694;7.246;2023-07-22T10:20:08;24.60;30.50
4097;DHT22;2062;50.694;7.246;2023-07-22T10:22:41;24.60;30.50
4097;DHT22;2062;50.694;7.246;2023-07-22T10:25:08;24.70;29.60
4097;DHT22;2062;50.694;7.246;2023-07-22T10:27:36;24.70;29.90
4097;DHT22;2062;50.694;7.246;2023-07-22T10:30:06;24.80;30.30
4097;DHT22;2062;50.694;7.246;2023-07-22T10:32:36;24.90;30.60
4097;DHT22;2062;50.694;7.246;2023-07-22T10:35:03;25.00;30.30
4097;DHT22;2062;50.694;7.246;2023-07-22T10:37:31;25.10;30.00
4097;DHT22;2062;50.694;7.246;2023-07-22T10:40:19;25.20;30.30
4097;DHT22;2062;50.694;7.246;2023-07-22T10:42:53;25.40;30.00
4097;DHT22;2062;50.694;7.246;2023-07-22T10:45:24;25.50;30.40
4097;DHT22;2062;50.694;7.246;2023-07-22T10:48:02;25.70;30.00
4097;DHT22;2062;50.694;7.246;2023-07-22T10:50:45;25.90;28.90
4097;DHT22;2062;50.694;7.246;2023-07-22T10:53:14;26.00;29.10
4097;DHT22;2062;50.694;7.246;2023-07-22T10:56:06;26.10;30.20
4097;DHT22;2062;50.694;7.246;2023-07-22T10:58:54;26.30;29.60
4097;DHT22;2062;50.694;7.246;2023-07-22T11:01:22;26.50;30.20
4097;DHT22;2062;50.694;7.246;2023-07-22T11:04:11;26.60;30.00
4097;DHT22;2062;50.694;7.246;2023-07-22T11:06:40;26.90;27.70
4097;DHT22;2062;50.694;7.246;2023-07-22T11:09:36;26.90;27.20
4097;DHT22;2062;50.694;7.246;2023-07-22T11:12:04;27.00;25.80
4097;DHT22;2062;50.694;7.246;2023-07-22T11:14:32;27.10;26.60
4097;DHT22;2062;50.694;7.246;2023-07-22T11:17:01;27.10;27.20
4097;DHT22;2062;50.694;7.246;2023-07-22T11:19:31;27.20;26.80
4097;DHT22;2062;50.694;7.246;2023-07-22T11:21:57;27.30;26.60
4097;DHT22;2062;50.694;7.246;2023-07-22T11:24:24;27.30;26.40
4097;DHT22;2062;50.694;7.246;2023-07-22T11:26:52;27.40;26.10
4097;DHT22;2062;50.694;7.246;2023-07-22T11:29:19;27.50;25.60
4097;DHT22;2062;50.694;7.246;2023-07-22T11:31:47;27.50;25.70
4097;DHT22;2062;50.694;7.246;2023-07-22T11:34:16;27.50;25.70
4097;DHT22;2062;50.694;7.246;2023-07-22T11:36:44;27.60;25.70
4097;DHT22;2062;50.694;7.246;2023-07-22T11:39:13;27.60;26.10
4097;DHT22;2062;50.694;7.246;2023-07-22T11:41:41;27.70;25.40
4097;DHT22;2062;50.694;7.246;2023-07-22T11:44:09;27.70;25.30
4097;DHT22;2062;50.694;7.246;2023-07-22T11:46:47;27.70;24.80
4097;DHT22;2062;50.694;7.246;2023-07-22T11:49:22;27.70;24.00
4097;DHT22;2062;50.694;7.246;2023-07-22T11:51:51;27.70;23.40
4097;DHT22;2062;50.694;7.246;2023-07-22T11:54:20;27.70;24.90
4097;DHT22;2062;50.694;7.246;2023-07-22T11:56:47;27.80;24.20
4097;DHT22;2062;50.694;7.246;2023-07-22T11:59:15;27.70;23.80
4097;DHT22;2062;50.694;7.246;2023-07-22T12:01:44;27.70;23.90
4097;DHT22;2062;50.694;7.246;2023-07-22T12:04:12;27.70;24.50
4097;DHT22;2062;50.694;7.246;2023-07-22T12:06:39;27.80;24.80
4097;DHT22;2062;50.694;7.246;2023-07-22T12:09:09;27.80;24.80
4097;DHT22;2062;50.694;7.246;2023-07-22T12:11:36;27.90;24.50
4097;DHT22;2062;50.694;7.246;2023-07-22T12:14:10;28.00;25.10
4097;DHT22;2062;50.694;7.246;2023-07-22T12:16:39;27.80;23.10
4097;DHT22;2062;50.694;7.246;2023-07-22T12:19:07;28.00;24.20
4097;DHT22;2062;50.694;7.246;2023-07-22T12:21:34;28.00;23.80
4097;DHT22;2062;50.694;7.246;2023-07-22T12:24:02;28.00;23.70
4097;DHT22;2062;50.694;7.246;2023-07-22T12:26:31;28.10;24.00
4097;DHT22;2062;50.694;7.246;2023-07-22T12:28:57;28.10;24.00
4097;DHT22;2062;50.694;7.246;2023-07-22T12:31:25;28.20;23.70
4097;DHT22;2062;50.694;7.246;2023-07-22T12:33:51;28.20;23.60
4097;DHT22;2062;50.694;7.246;2023-07-22T12:36:18;28.30;23.10
4097;DHT22;2062;50.694;7.246;2023-07-22T12:38:45;28.30;23.20
4097;DHT22;2062;50.694;7.246;2023-07-22T12:41:11;28.30;23.20
4097;DHT22;2062;50.694;7.246;2023-07-22T12:43:40;28.30;23.00
4097;DHT22;2062;50.694;7.246;2023-07-22T12:46:06;28.30;22.80
4097;DHT22;2062;50.694;7.246;2023-07-22T12:48:33;28.30;22.70
4097;DHT22;2062;50.694;7.246;2023-07-22T12:51:00;28.30;22.20
4097;DHT22;2062;50.694;7.246;2023-07-22T12:53:27;28.20;21.80
4097;DHT22;2062;50.694;7.246;2023-07-22T12:55:54;28.20;22.90
4097;DHT22;2062;50.694;7.246;2023-07-22T12:58:21;28.10;22.50
4097;DHT22;2062;50.694;7.246;2023-07-22T13:00:49;28.10;22.20
4097;DHT22;2062;50.694;7.246;2023-07-22T13:03:16;28.00;20.30
4097;DHT22;2062;50.694;7.246;2023-07-22T13:05:43;27.90;21.50
4097;DHT22;2062;50.694;7.246;2023-07-22T13:08:10;27.90;22.20
4097;DHT22;2062;50.694;7.246;2023-07-22T13:10:36;27.90;22.20
4097;DHT22;2062;50.694;7.246;2023-07-22T13:13:05;27.90;22.00
4097;DHT22;2062;50.694;7.246;2023-07-22T13:15:32;27.90;22.40
4097;DHT22;2062;50.694;7.246;2023-07-22T13:18:00;28.00;22.90
4097;DHT22;2062;50.694;7.246;2023-07-22T13:20:28;28.00;22.60
4097;DHT22;2062;50.694;7.246;2023-07-22T13:22:55;28.10;22.90
4097;DHT22;2062;50.694;7.246;2023-07-22T13:25:22;28.10;22.90
4097;DHT22;2062;50.694;7.246;2023-07-22T13:27:48;28.00;22.10
4097;DHT22;2062;50.694;7.246;2023-07-22T13:30:15;28.00;22.20
4097;DHT22;2062;50.694;7.246;2023-07-22T13:32:42;28.00;22.30
4097;DHT22;2062;50.694;7.246;2023-07-22T13:35:10;28.00;22.10
4097;DHT22;2062;50.694;7.246;2023-07-22T13:37:37;28.00;22.40
4097;DHT22;2062;50.694;7.246;2023-07-22T13:40:05;27.90;22.00
4097;DHT22;2062;50.694;7.246;2023-07-22T13:42:36;27.90;22.20
4097;DHT22;2062;50.694;7.246;2023-07-22T13:45:04;27.90;22.50
4097;DHT22;2062;50.694;7.246;2023-07-22T13:47:31;27.90;22.50
4097;DHT22;2062;50.694;7.246;2023-07-22T13:49:57;27.90;22.30
4097;DHT22;2062;50.694;7.246;2023-07-22T13:52:26;27.90;21.60
4097;DHT22;2062;50.694;7.246;2023-07-22T13:54:52;27.80;21.50
4097;DHT22;2062;50.694;7.246;2023-07-22T13:57:19;27.80;21.10
4097;DHT22;2062;50.694;7.246;2023-07-22T13:59:46;27.70;22.10
4097;DHT22;2062;50.694;7.246;2023-07-22T14:02:13;27.80;22.50
4097;DHT22;2062;50.694;7.246;2023-07-22T14:04:39;27.90;22.80
4097;DHT22;2062;50.694;7.246;2023-07-22T14:07:06;27.90;21.70
4097;DHT22;2062;50.694;7.246;2023-07-22T14:09:34;28.00;22.30
4097;DHT22;2062;50.694;7.246;2023-07-22T14:12:02;28.10;22.90
4097;DHT22;2062;50.694;7.246;2023-07-22T14:14:28;28.20;22.90
4097;DHT22;2062;50.694;7.246;2023-07-22T14:16:55;28.30;23.00
4097;DHT22;2062;50.694;7.246;2023-07-22T14:19:23;28.40;23.10
4097;DHT22;2062;50.694;7.246;2023-07-22T14:21:50;28.50;22.10
4097;DHT22;2062;50.694;7.246;2023-07-22T14:24:17;28.50;21.50
4097;DHT22;2062;50.694;7.246;2023-07-22T14:26:45;28.60;21.90
4097;DHT22;2062;50.694;7.246;2023-07-22T14:29:13;28.70;21.80
4097;DHT22;2062;50.694;7.246;2023-07-22T14:31:42;28.70;22.80
4097;DHT22;2062;50.694;7.246;2023-07-22T14:34:09;28.90;22.80
4097;DHT22;2062;50.694;7.246;2023-07-22T14:36:36;28.80;22.00
4097;DHT22;2062;50.694;7.246;2023-07-22T14:39:03;28.90;21.70
4097;DHT22;2062;50.694;7.246;2023-07-22T14:41:30;28.90;21.00
4097;DHT22;2062;50.694;7.246;2023-07-22T14:43:58;28.90;21.40
4097;DHT22;2062;50.694;7.246;2023-07-22T14:46:25;28.80;22.30
4097;DHT22;2062;50.694;7.246;2023-07-22T14:48:52;28.80;23.10
4097;DHT22;2062;50.694;7.246;2023-07-22T14:51:19;28.80;22.30
4097;DHT22;2062;50.694;7.246;2023-07-22T14:53:45;28.80;22.40
4097;DHT22;2062;50.694;7.246;2023-07-22T14:56:12;28.90;22.40
4097;DHT22;2062;50.694;7.246;2023-07-22T14:58:39;28.90;22.40
4097;DHT22;2062;50.694;7.246;2023-07-22T15:01:08;28.90;22.20
4097;DHT22;2062;50.694;7.246;2023-07-22T15:03:36;28.80;21.40
4097;DHT22;2062;50.694;7.246;2023-07-22T15:06:04;28.80;21.60
4097;DHT22;2062;50.694;7.246;2023-07-22T15:08:31;28.80;22.20
4097;DHT22;2062;50.694;7.246;2023-07-22T15:10:57;28.80;22.20
4097;DHT22;2062;50.694;7.246;2023-07-22T15:13:24;28.80;22.20
4097;DHT22;2062;50.694;7.246;2023-07-22T15:15:53;28.80;22.10
4097;DHT22;2062;50.694;7.246;2023-07-22T15:18:21;28.80;22.20
4097;DHT22;2062;50.694;7.246;2023-07-22T15:20:48;28.80;22.40
4097;DHT22;2062;50.694;7.246;2023-07-22T15:23:15;28.80;21.90
4097;DHT22;2062;50.694;7.246;2023-07-22T15:25:42;28.70;22.20
4097;DHT22;2062;50.694;7.246;2023-07-22T15:28:09;28.60;21.80
4097;DHT22;2062;50.694;7.246;2023-07-22T15:30:35;28.50;21.70
4097;DHT22;2062;50.694;7.246;2023-07-22T15:33:02;28.40;22.20
4097;DHT22;2062;50.694;7.246;2023-07-22T15:35:30;28.40;22.20
4097;DHT22;2062;50.694;7.246;2023-07-22T15:37:57;28.30;21.90
4097;DHT22;2062;50.694;7.246;2023-07-22T15:40:24;28.30;22.20
4097;DHT22;2062;50.694;7.246;2023-07-22T15:42:51;28.20;22.50
4097;DHT22;2062;50.694;7.246;2023-07-22T15:45:18;28.30;22.60
4097;DHT22;2062;50.694;7.246;2023-07-22T15:47:44;28.10;22.40
4097;DHT22;2062;50.694;7.246;2023-07-22T15:50:11;28.20;22.60
4097;DHT22;2062;50.694;7.246;2023-07-22T15:52:39;28.10;22.50
4097;DHT22;2062;50.694;7.246;2023-07-22T15:55:07;28.10;22.70
4097;DHT22;2062;50.694;7.246;2023-07-22T15:57:33;28.10;22.70
4097;DHT22;2062;50.694;7.246;2023-07-22T16:00:00;28.10;22.90
4097;DHT22;2062;50.694;7.246;2023-07-22T16:02:28;28.10;22.80
4097;DHT22;2062;50.694;7.246;2023-07-22T16:04:54;28.00;22.80